Pawleys Island, SC

2:51 PM EST on March 03, 2015 (GMT -0500)
Grand Strand | Change Station
CLOSE
Current Station
Airport
Location: North Myrtle Beach,
Elevation: 33 ft
Nearby Weather Stations
Active Advisory: Flood Warning

Elev 33 ft 33.81 °N, 78.72 °W | Updated 58 minutes ago

Overcast
Overcast
55 °F
Feels Like 55 °F
N
7
Wind Variable Wind from ENE

Today
High -- | Low -- °F
--% Chance of Precip.
Yesterday
High -- | Low -- °F
Precip. -- in
6:42 AM 6:14 PM
Waxing Gibbous, 97% visible
Pressure 30.23 in
Visibility 10.0 miles
Clouds Overcast 2100 ft
Dew Point 47 °F
Humidity 74%
Rainfall 0.00 in
Snow Depth Not available.
UV 2 out of 12
Pollen 3.20 out of 12
Air Quality Not available.
Flu Activity Not available.
METAR KCRE 031853Z 07006KT 10SM OVC021 13/08 A3023 RMK AO1 SLP237 T01280083

More Conditions Fewer Conditions

Pressure 30.23 in
Visibility 10.0 miles
Clouds Overcast 2100 ft
Dew Point 47 °F
Humidity 74%
Rainfall 0.00 in
Snow Depth Not available.
UV 2 out of 12
Pollen 3.20 out of 12
Air Quality Not available.
Flu Activity Not available.
METAR KCRE 031853Z 07006KT 10SM OVC021 13/08 A3023 RMK AO1 SLP237 T01280083

More Conditions Fewer Conditions

10-Day Weather Forecast

Almanac

Astronomy

Mar. 03, 2015 Rise Set
Actual Time
Civil Twilight
Nautical Twilight
Astronomical Twilight
Moon
Length of Visible Light
Length of Day
Tomorrow will be .
, % of the Moon is Illuminated

Today's Extremes

State Highs State Lows

Community

WunderPhotos

Upload Photos

1,802,217 photos uploaded!

WunderBlogs® & News

Nearby

Air Quality

  Air Quality AQ Index Pollutant
Not available.

Snow Depth

Station Depth Elevation

Earthquake Activity

City Distance Mag. Time & Date
Minimum magnitude displayed is 2.5.

Coastal Water Temperatures

Place Temperature

Nearby Weather Stations

Flood Warning
Statement as of 10:14 AM EST on March 03, 2015

The National Weather Service in Charleston has issued a

* Flood Warning for
the Santee river near Jamestown.
* From Wednesday morning until further notice.
* At 9 am Tuesday the stage was 9.7 feet.
* Flood stage is 10.0 feet.
* Minor flooding is forecast.
* Forecast, rise above flood stage by Wednesday morning and continue
to rise to near 10.3 feet by Thursday evening.
* At 10.0 feet, water covers numerous logging roads and inundates
Timber land adjacent to the river. Most access points to wee tee
state Forest are cut off.


Lat... Lon 3347 8002 3354 7998 3335 7969 3327 7946
          3320 7951 3329 7976